sensor_id;sensor_type;location;lat;lon;timestamp;pressure;altitude;pressure_sealevel;temperature;humidity
79150;BME280;68563;45.644;13.782;2023-07-13T00:01:25;100624.72;;;34.92;33.40
79150;BME280;68563;45.644;13.782;2023-07-13T00:03:51;100617.41;;;35.99;31.44
79150;BME280;68563;45.644;13.782;2023-07-13T00:06:17;100614.22;;;37.47;29.13
79150;BME280;68563;45.644;13.782;2023-07-13T00:08:42;100586.00;;;35.76;31.54
79150;BME280;68563;45.644;13.782;2023-07-13T00:11:08;100581.72;;;34.37;33.89
79150;BME280;68563;45.644;13.782;2023-07-13T00:13:35;100577.69;;;36.07;31.17
79150;BME280;68563;45.644;13.782;2023-07-13T00:16:03;100568.50;;;37.52;28.62
79150;BME280;68563;45.644;13.782;2023-07-13T00:18:29;100578.75;;;35.91;30.58
79150;BME280;68563;45.644;13.782;2023-07-13T00:20:55;100600.97;;;34.72;31.74
79150;BME280;68563;45.644;13.782;2023-07-13T00:23:22;100613.38;;;36.31;29.49
79150;BME280;68563;45.644;13.782;2023-07-13T00:25:48;100609.91;;;37.59;27.70
79150;BME280;68563;45.644;13.782;2023-07-13T00:28:15;100627.47;;;36.27;29.37
79150;BME280;68563;45.644;13.782;2023-07-13T00:30:41;100623.56;;;34.86;31.44
79150;BME280;68563;45.644;13.782;2023-07-13T00:33:06;100630.84;;;36.14;29.66
79150;BME280;68563;45.644;13.782;2023-07-13T00:35:34;100634.44;;;37.99;26.78
79150;BME280;68563;45.644;13.782;2023-07-13T00:37:59;100632.25;;;36.68;28.45
79150;BME280;68563;45.644;13.782;2023-07-13T00:40:25;100637.69;;;35.26;30.34
79150;BME280;68563;45.644;13.782;2023-07-13T00:42:52;100632.88;;;36.48;28.67
79150;BME280;68563;45.644;13.782;2023-07-13T00:47:43;100639.78;;;36.72;28.24
79150;BME280;68563;45.644;13.782;2023-07-13T00:50:11;100657.94;;;35.37;30.36
79150;BME280;68563;45.644;13.782;2023-07-13T00:52:40;100654.53;;;35.58;30.38
79150;BME280;68563;45.644;13.782;2023-07-13T00:55:07;100645.47;;;37.06;28.22
79150;BME280;68563;45.644;13.782;2023-07-13T00:57:34;100659.69;;;36.35;29.00
79150;BME280;68563;45.644;13.782;2023-07-13T01:00:03;100690.19;;;35.07;31.27
79150;BME280;68563;45.644;13.782;2023-07-13T01:02:32;100748.31;;;35.40;31.29
79150;BME280;68563;45.644;13.782;2023-07-13T01:04:58;100814.00;;;36.82;29.55
79150;BME280;68563;45.644;13.782;2023-07-13T01:07:24;100868.47;;;36.40;30.00
79150;BME280;68563;45.644;13.782;2023-07-13T01:09:50;100850.38;;;34.87;32.75
79150;BME280;68563;45.644;13.782;2023-07-13T01:12:15;100853.13;;;34.39;34.19
79150;BME280;68563;45.644;13.782;2023-07-13T01:14:41;100817.03;;;35.74;31.89
79150;BME280;68563;45.644;13.782;2023-07-13T01:17:09;100814.31;;;35.97;30.75
79150;BME280;68563;45.644;13.782;2023-07-13T01:22:11;100790.09;;;34.33;34.10
79150;BME280;68563;45.644;13.782;2023-07-13T01:24:38;100820.47;;;35.83;31.91
79150;BME280;68563;45.644;13.782;2023-07-13T01:27:05;100830.31;;;35.75;31.85
79150;BME280;68563;45.644;13.782;2023-07-13T01:29:32;100832.25;;;34.41;33.57
79150;BME280;68563;45.644;13.782;2023-07-13T01:31:58;100829.78;;;34.14;34.15
79150;BME280;68563;45.644;13.782;2023-07-13T01:34:26;100809.22;;;35.64;31.83
79150;BME280;68563;45.644;13.782;2023-07-13T01:36:52;100838.41;;;35.75;31.24
79150;BME280;68563;45.644;13.782;2023-07-13T01:39:23;100826.03;;;34.48;33.36
79150;BME280;68563;45.644;13.782;2023-07-13T01:41:48;100802.63;;;34.01;34.64
79150;BME280;68563;45.644;13.782;2023-07-13T01:44:14;100797.66;;;35.40;32.25
79150;BME280;68563;45.644;13.782;2023-07-13T01:46:40;100803.16;;;35.15;32.72
79150;BME280;68563;45.644;13.782;2023-07-13T01:49:05;100809.50;;;33.87;34.55
79150;BME280;68563;45.644;13.782;2023-07-13T01:51:30;100830.13;;;33.37;36.00
79150;BME280;68563;45.644;13.782;2023-07-13T01:53:56;100830.06;;;34.44;34.08
79150;BME280;68563;45.644;13.782;2023-07-13T01:56:21;100823.91;;;34.75;33.04
79150;BME280;68563;45.644;13.782;2023-07-13T01:58:47;100805.63;;;33.73;34.46
79150;BME280;68563;45.644;13.782;2023-07-13T02:01:12;100802.31;;;32.79;36.77
79150;BME280;68563;45.644;13.782;2023-07-13T02:03:37;100796.41;;;33.67;35.17
79150;BME280;68563;45.644;13.782;2023-07-13T02:06:03;100783.31;;;34.54;33.14
79150;BME280;68563;45.644;13.782;2023-07-13T02:08:28;100762.50;;;33.50;35.22
79150;BME280;68563;45.644;13.782;2023-07-13T02:10:54;100752.09;;;32.54;37.52
79150;BME280;68563;45.644;13.782;2023-07-13T02:13:19;100756.50;;;34.29;34.00
79150;BME280;68563;45.644;13.782;2023-07-13T02:15:45;100746.97;;;35.59;31.76
79150;BME280;68563;45.644;13.782;2023-07-13T02:18:10;100741.91;;;34.23;33.79
79150;BME280;68563;45.644;13.782;2023-07-13T02:20:36;100745.50;;;33.00;36.20
79150;BME280;68563;45.644;13.782;2023-07-13T02:23:01;100779.41;;;34.08;34.48
79150;BME280;68563;45.644;13.782;2023-07-13T02:25:26;100792.06;;;35.80;31.69
79150;BME280;68563;45.644;13.782;2023-07-13T02:27:52;100786.91;;;34.29;34.01
79150;BME280;68563;45.644;13.782;2023-07-13T02:30:18;100766.50;;;33.29;35.75
79150;BME280;68563;45.644;13.782;2023-07-13T02:32:43;100755.84;;;34.18;34.27
79150;BME280;68563;45.644;13.782;2023-07-13T02:35:09;100743.47;;;36.33;30.65
79150;BME280;68563;45.644;13.782;2023-07-13T02:37:35;100741.47;;;34.82;33.21
79150;BME280;68563;45.644;13.782;2023-07-13T02:40:00;100746.75;;;33.38;35.72
79150;BME280;68563;45.644;13.782;2023-07-13T02:42:26;100725.91;;;34.38;34.57
79150;BME280;68563;45.644;13.782;2023-07-13T02:44:51;100715.81;;;36.09;31.23
79150;BME280;68563;45.644;13.782;2023-07-13T02:47:16;100722.38;;;34.69;33.49
79150;BME280;68563;45.644;13.782;2023-07-13T02:49:42;100733.81;;;33.50;35.18
79150;BME280;68563;45.644;13.782;2023-07-13T02:52:07;100741.53;;;33.86;35.15
79150;BME280;68563;45.644;13.782;2023-07-13T02:54:33;100743.34;;;35.28;32.62
79150;BME280;68563;45.644;13.782;2023-07-13T02:56:58;100739.66;;;34.75;33.30
79150;BME280;68563;45.644;13.782;2023-07-13T02:59:24;100732.97;;;33.58;34.92
79150;BME280;68563;45.644;13.782;2023-07-13T03:01:49;100729.38;;;33.82;35.36
79150;BME280;68563;45.644;13.782;2023-07-13T03:04:15;100718.75;;;35.08;32.96
79150;BME280;68563;45.644;13.782;2023-07-13T03:06:44;100701.63;;;34.78;33.29
79150;BME280;68563;45.644;13.782;2023-07-13T03:09:10;100693.72;;;33.49;35.81
79150;BME280;68563;45.644;13.782;2023-07-13T03:11:38;100700.59;;;33.35;36.47
79150;BME280;68563;45.644;13.782;2023-07-13T03:14:03;100705.81;;;35.27;32.78
79150;BME280;68563;45.644;13.782;2023-07-13T03:16:29;100691.09;;;34.99;33.09
79150;BME280;68563;45.644;13.782;2023-07-13T03:18:55;100681.72;;;33.76;35.00
79150;BME280;68563;45.644;13.782;2023-07-13T03:21:20;100676.09;;;33.30;35.97
79150;BME280;68563;45.644;13.782;2023-07-13T03:23:46;100674.69;;;34.86;33.39
79150;BME280;68563;45.644;13.782;2023-07-13T03:26:15;100674.81;;;34.93;33.23
79150;BME280;68563;45.644;13.782;2023-07-13T03:28:41;100660.13;;;33.69;34.85
79150;BME280;68563;45.644;13.782;2023-07-13T03:31:09;100663.66;;;33.53;35.47
79150;BME280;68563;45.644;13.782;2023-07-13T03:33:35;100667.91;;;35.13;32.76
79150;BME280;68563;45.644;13.782;2023-07-13T03:36:02;100673.22;;;35.07;32.69
79150;BME280;68563;45.644;13.782;2023-07-13T03:38:28;100669.81;;;33.79;34.77
79150;BME280;68563;45.644;13.782;2023-07-13T03:40:53;100673.41;;;33.21;35.87
79150;BME280;68563;45.644;13.782;2023-07-13T03:43:19;100660.50;;;35.15;32.66
79150;BME280;68563;45.644;13.782;2023-07-13T03:45:46;100663.41;;;35.29;32.18
79150;BME280;68563;45.644;13.782;2023-07-13T03:48:11;100659.63;;;33.66;34.74
79150;BME280;68563;45.644;13.782;2023-07-13T03:50:36;100656.81;;;33.26;36.02
79150;BME280;68563;45.644;13.782;2023-07-13T03:53:02;100659.81;;;34.75;33.20
79150;BME280;68563;45.644;13.782;2023-07-13T03:55:27;100659.78;;;35.60;31.41
79150;BME280;68563;45.644;13.782;2023-07-13T03:57:58;100658.28;;;34.18;33.99
79150;BME280;68563;45.644;13.782;2023-07-13T04:00:24;100654.28;;;33.49;35.37
79150;BME280;68563;45.644;13.782;2023-07-13T04:02:49;100662.31;;;35.00;32.56
79150;BME280;68563;45.644;13.782;2023-07-13T04:05:15;100659.69;;;35.68;31.10
79150;BME280;68563;45.644;13.782;2023-07-13T04:07:41;100658.84;;;33.97;33.63
79150;BME280;68563;45.644;13.782;2023-07-13T04:10:07;100662.69;;;32.88;35.83
79150;BME280;68563;45.644;13.782;2023-07-13T04:12:32;100653.09;;;35.18;31.24
79150;BME280;68563;45.644;13.782;2023-07-13T04:14:58;100647.88;;;36.72;28.95
79150;BME280;68563;45.644;13.782;2023-07-13T04:17:23;100660.56;;;35.07;31.35
79150;BME280;68563;45.644;13.782;2023-07-13T04:19:49;100666.63;;;33.67;33.36
79150;BME280;68563;45.644;13.782;2023-07-13T04:22:14;100661.03;;;34.33;31.98
79150;BME280;68563;45.644;13.782;2023-07-13T04:24:40;100673.41;;;33.30;34.37
79150;BME280;68563;45.644;13.782;2023-07-13T04:27:06;100675.34;;;32.53;35.39
79150;BME280;68563;45.644;13.782;2023-07-13T04:29:31;100682.72;;;31.82;36.84
79150;BME280;68563;45.644;13.782;2023-07-13T04:31:57;100679.22;;;31.37;37.16
79150;BME280;68563;45.644;13.782;2023-07-13T04:34:22;100690.31;;;31.06;37.68
79150;BME280;68563;45.644;13.782;2023-07-13T04:36:49;100699.41;;;30.77;38.64
79150;BME280;68563;45.644;13.782;2023-07-13T04:39:15;100692.81;;;30.53;38.54
79150;BME280;68563;45.644;13.782;2023-07-13T04:41:40;100684.78;;;30.26;38.82
79150;BME280;68563;45.644;13.782;2023-07-13T04:44:05;100686.50;;;30.17;38.85
79150;BME280;68563;45.644;13.782;2023-07-13T04:46:31;100687.97;;;30.01;39.18
79150;BME280;68563;45.644;13.782;2023-07-13T04:48:56;100681.13;;;29.89;39.41
79150;BME280;68563;45.644;13.782;2023-07-13T04:51:23;100669.06;;;29.75;39.51
79150;BME280;68563;45.644;13.782;2023-07-13T04:53:48;100673.97;;;29.80;39.12
79150;BME280;68563;45.644;13.782;2023-07-13T04:56:14;100680.44;;;29.77;38.96
79150;BME280;68563;45.644;13.782;2023-07-13T04:58:39;100678.59;;;29.77;39.31
79150;BME280;68563;45.644;13.782;2023-07-13T05:01:06;100683.00;;;29.59;39.90
79150;BME280;68563;45.644;13.782;2023-07-13T05:03:32;100684.00;;;29.48;39.57
79150;BME280;68563;45.644;13.782;2023-07-13T05:05:59;100678.84;;;29.47;39.59
79150;BME280;68563;45.644;13.782;2023-07-13T05:08:25;100688.78;;;29.44;39.41
79150;BME280;68563;45.644;13.782;2023-07-13T05:10:51;100686.44;;;29.41;39.47
79150;BME280;68563;45.644;13.782;2023-07-13T05:13:17;100687.66;;;29.27;40.08
79150;BME280;68563;45.644;13.782;2023-07-13T05:15:42;100695.41;;;29.21;40.39
79150;BME280;68563;45.644;13.782;2023-07-13T05:18:08;100692.59;;;29.32;40.24
79150;BME280;68563;45.644;13.782;2023-07-13T05:20:33;100688.97;;;29.33;40.15
79150;BME280;68563;45.644;13.782;2023-07-13T05:22:58;100688.53;;;29.28;40.83
79150;BME280;68563;45.644;13.782;2023-07-13T05:25:24;100691.88;;;29.20;40.91
79150;BME280;68563;45.644;13.782;2023-07-13T05:27:49;100679.53;;;29.09;41.33
79150;BME280;68563;45.644;13.782;2023-07-13T05:30:15;100682.19;;;29.09;41.76
79150;BME280;68563;45.644;13.782;2023-07-13T05:32:41;100686.69;;;29.09;41.65
79150;BME280;68563;45.644;13.782;2023-07-13T05:35:07;100692.72;;;29.01;41.80
79150;BME280;68563;45.644;13.782;2023-07-13T05:37:33;100696.25;;;29.02;41.92
79150;BME280;68563;45.644;13.782;2023-07-13T05:39:58;100706.34;;;28.98;42.01
79150;BME280;68563;45.644;13.782;2023-07-13T05:42:24;100711.81;;;28.96;41.76
79150;BME280;68563;45.644;13.782;2023-07-13T05:44:49;100716.03;;;28.99;41.90
79150;BME280;68563;45.644;13.782;2023-07-13T05:47:14;100715.72;;;29.02;42.08
79150;BME280;68563;45.644;13.782;2023-07-13T05:49:40;100716.44;;;29.04;42.05
79150;BME280;68563;45.644;13.782;2023-07-13T05:52:06;100718.53;;;29.10;41.71
79150;BME280;68563;45.644;13.782;2023-07-13T05:54:32;100722.34;;;29.08;41.71
79150;BME280;68563;45.644;13.782;2023-07-13T05:56:57;100726.97;;;29.16;41.83
79150;BME280;68563;45.644;13.782;2023-07-13T05:59:22;100726.53;;;29.10;42.19
79150;BME280;68563;45.644;13.782;2023-07-13T06:01:49;100720.38;;;29.10;41.90
79150;BME280;68563;45.644;13.782;2023-07-13T06:04:14;100718.41;;;29.22;41.88
79150;BME280;68563;45.644;13.782;2023-07-13T06:06:40;100727.41;;;29.21;41.85
79150;BME280;68563;45.644;13.782;2023-07-13T06:09:05;100739.63;;;29.33;41.34
79150;BME280;68563;45.644;13.782;2023-07-13T06:11:30;100728.81;;;29.35;41.58
79150;BME280;68563;45.644;13.782;2023-07-13T06:13:56;100735.28;;;29.32;41.87
79150;BME280;68563;45.644;13.782;2023-07-13T06:16:22;100727.41;;;29.21;42.18
79150;BME280;68563;45.644;13.782;2023-07-13T06:18:47;100730.19;;;29.19;42.04
79150;BME280;68563;45.644;13.782;2023-07-13T06:21:15;100723.16;;;29.18;41.98
79150;BME280;68563;45.644;13.782;2023-07-13T06:23:42;100716.84;;;29.19;42.73
79150;BME280;68563;45.644;13.782;2023-07-13T06:26:08;100715.59;;;29.23;42.52
79150;BME280;68563;45.644;13.782;2023-07-13T06:28:34;100712.53;;;29.28;42.75
79150;BME280;68563;45.644;13.782;2023-07-13T06:31:00;100707.19;;;29.28;42.11
79150;BME280;68563;45.644;13.782;2023-07-13T06:33:26;100696.22;;;29.11;43.09
79150;BME280;68563;45.644;13.782;2023-07-13T06:35:52;100715.16;;;29.18;42.88
79150;BME280;68563;45.644;13.782;2023-07-13T06:38:18;100718.69;;;29.19;43.05
79150;BME280;68563;45.644;13.782;2023-07-13T06:40:43;100712.53;;;29.28;42.45
79150;BME280;68563;45.644;13.782;2023-07-13T06:43:09;100699.63;;;29.43;42.36
79150;BME280;68563;45.644;13.782;2023-07-13T06:45:44;100698.88;;;29.51;42.27
79150;BME280;68563;45.644;13.782;2023-07-13T06:48:11;100718.69;;;29.58;42.21
79150;BME280;68563;45.644;13.782;2023-07-13T06:50:37;100722.63;;;29.54;42.30
79150;BME280;68563;45.644;13.782;2023-07-13T06:53:02;100710.97;;;29.55;42.36
79150;BME280;68563;45.644;13.782;2023-07-13T06:55:27;100718.69;;;29.48;42.71
79150;BME280;68563;45.644;13.782;2023-07-13T06:57:53;100733.31;;;29.44;43.04
79150;BME280;68563;45.644;13.782;2023-07-13T07:00:18;100743.44;;;29.40;43.00
79150;BME280;68563;45.644;13.782;2023-07-13T07:02:44;100744.56;;;29.48;43.22
79150;BME280;68563;45.644;13.782;2023-07-13T07:05:09;100734.44;;;29.51;43.26
79150;BME280;68563;45.644;13.782;2023-07-13T07:07:35;100735.00;;;29.55;43.23
79150;BME280;68563;45.644;13.782;2023-07-13T07:10:00;100730.63;;;29.64;42.99
79150;BME280;68563;45.644;13.782;2023-07-13T07:12:25;100734.41;;;29.71;43.24
79150;BME280;68563;45.644;13.782;2023-07-13T07:14:51;100723.84;;;29.79;43.37
79150;BME280;68563;45.644;13.782;2023-07-13T07:17:16;100723.44;;;29.94;43.18
79150;BME280;68563;45.644;13.782;2023-07-13T07:19:42;100717.06;;;30.04;43.05
79150;BME280;68563;45.644;13.782;2023-07-13T07:22:07;100716.59;;;30.09;42.69
79150;BME280;68563;45.644;13.782;2023-07-13T07:24:33;100719.66;;;30.24;42.23
79150;BME280;68563;45.644;13.782;2023-07-13T07:26:58;100702.50;;;30.27;42.52
79150;BME280;68563;45.644;13.782;2023-07-13T07:29:24;100692.41;;;30.20;42.79
79150;BME280;68563;45.644;13.782;2023-07-13T07:31:51;100699.16;;;30.15;42.78
79150;BME280;68563;45.644;13.782;2023-07-13T07:34:17;100712.63;;;30.23;43.12
79150;BME280;68563;45.644;13.782;2023-07-13T07:36:42;100721.34;;;30.25;43.51
79150;BME280;68563;45.644;13.782;2023-07-13T07:39:08;100723.84;;;30.27;43.58
79150;BME280;68563;45.644;13.782;2023-07-13T07:41:33;100721.63;;;30.22;43.86
79150;BME280;68563;45.644;13.782;2023-07-13T07:43:58;100713.59;;;30.22;43.52
79150;BME280;68563;45.644;13.782;2023-07-13T07:46:24;100714.97;;;30.26;43.83
79150;BME280;68563;45.644;13.782;2023-07-13T07:48:49;100711.78;;;30.22;44.35
79150;BME280;68563;45.644;13.782;2023-07-13T07:51:14;100721.72;;;30.30;43.71
79150;BME280;68563;45.644;13.782;2023-07-13T07:53:40;100726.09;;;30.31;43.95
79150;BME280;68563;45.644;13.782;2023-07-13T07:56:05;100711.75;;;30.32;43.97
79150;BME280;68563;45.644;13.782;2023-07-13T07:58:31;100715.09;;;30.34;44.35
79150;BME280;68563;45.644;13.782;2023-07-13T08:01:06;100711.44;;;30.35;44.51
79150;BME280;68563;45.644;13.782;2023-07-13T08:03:32;100714.19;;;30.53;44.45
79150;BME280;68563;45.644;13.782;2023-07-13T08:05:58;100704.41;;;30.62;43.85
79150;BME280;68563;45.644;13.782;2023-07-13T08:08:24;100698.03;;;30.73;43.61
79150;BME280;68563;45.644;13.782;2023-07-13T08:10:49;100688.41;;;30.80;43.86
79150;BME280;68563;45.644;13.782;2023-07-13T08:13:14;100705.69;;;30.86;43.85
79150;BME280;68563;45.644;13.782;2023-07-13T08:15:40;100706.91;;;30.92;43.00
79150;BME280;68563;45.644;13.782;2023-07-13T08:18:05;100711.41;;;30.91;43.32
79150;BME280;68563;45.644;13.782;2023-07-13T08:20:32;100709.72;;;30.90;43.52
79150;BME280;68563;45.644;13.782;2023-07-13T08:22:58;100708.28;;;30.78;44.32
79150;BME280;68563;45.644;13.782;2023-07-13T08:25:23;100707.56;;;30.76;44.18
79150;BME280;68563;45.644;13.782;2023-07-13T08:27:48;100700.53;;;30.75;44.29
79150;BME280;68563;45.644;13.782;2023-07-13T08:30:14;100697.56;;;30.78;44.36
79150;BME280;68563;45.644;13.782;2023-07-13T08:32:39;100698.56;;;30.77;44.62
79150;BME280;68563;45.644;13.782;2023-07-13T08:35:05;100705.88;;;30.75;44.63
79150;BME280;68563;45.644;13.782;2023-07-13T08:37:30;100710.69;;;30.71;45.14
79150;BME280;68563;45.644;13.782;2023-07-13T08:39:56;100723.47;;;30.77;44.98
79150;BME280;68563;45.644;13.782;2023-07-13T08:42:33;100725.84;;;30.80;44.41
79150;BME280;68563;45.644;13.782;2023-07-13T08:47:48;100715.38;;;30.87;45.09
79150;BME280;68563;45.644;13.782;2023-07-13T08:50:20;100718.44;;;30.92;44.94
79150;BME280;68563;45.644;13.782;2023-07-13T08:52:49;100726.84;;;30.97;44.91
79150;BME280;68563;45.644;13.782;2023-07-13T08:55:24;100718.13;;;30.95;44.95
79150;BME280;68563;45.644;13.782;2023-07-13T08:58:13;100704.09;;;30.93;44.81
79150;BME280;68563;45.644;13.782;2023-07-13T09:00:52;100710.63;;;30.99;44.39
79150;BME280;68563;45.644;13.782;2023-07-13T09:03:29;100717.53;;;31.01;44.25
79150;BME280;68563;45.644;13.782;2023-07-13T09:05:59;100732.44;;;31.04;44.72
79150;BME280;68563;45.644;13.782;2023-07-13T09:08:37;100734.94;;;31.06;44.91
79150;BME280;68563;45.644;13.782;2023-07-13T09:11:14;100739.88;;;31.10;45.19
79150;BME280;68563;45.644;13.782;2023-07-13T09:16:14;100743.38;;;31.11;45.44
79150;BME280;68563;45.644;13.782;2023-07-13T09:18:46;100739.72;;;31.12;45.61
79150;BME280;68563;45.644;13.782;2023-07-13T09:21:18;100743.09;;;31.14;45.62
79150;BME280;68563;45.644;13.782;2023-07-13T09:23:47;100737.19;;;31.10;45.59
79150;BME280;68563;45.644;13.782;2023-07-13T09:26:17;100734.13;;;31.05;45.82
79150;BME280;68563;45.644;13.782;2023-07-13T09:28:46;100747.63;;;31.03;44.98
79150;BME280;68563;45.644;13.782;2023-07-13T09:31:16;100752.97;;;31.03;44.36
79150;BME280;68563;45.644;13.782;2023-07-13T09:33:44;100760.91;;;30.95;44.37
79150;BME280;68563;45.644;13.782;2023-07-13T09:38:44;100764.50;;;30.86;44.50
79150;BME280;68563;45.644;13.782;2023-07-13T09:41:37;100772.28;;;30.79;44.67
79150;BME280;68563;45.644;13.782;2023-07-13T09:46:37;100776.31;;;30.65;45.19
79150;BME280;68563;45.644;13.782;2023-07-13T09:49:03;100766.81;;;30.53;45.60
79150;BME280;68563;45.644;13.782;2023-07-13T09:51:28;100765.13;;;30.52;45.31
79150;BME280;68563;45.644;13.782;2023-07-13T09:53:54;100762.69;;;30.49;45.00
79150;BME280;68563;45.644;13.782;2023-07-13T09:56:26;100755.97;;;30.45;45.17
79150;BME280;68563;45.644;13.782;2023-07-13T09:58:52;100750.53;;;30.36;45.77
79150;BME280;68563;45.644;13.782;2023-07-13T10:01:32;100752.91;;;30.39;45.65
79150;BME280;68563;45.644;13.782;2023-07-13T10:03:58;100755.28;;;30.43;45.48
79150;BME280;68563;45.644;13.782;2023-07-13T10:06:23;100752.06;;;30.39;45.25
79150;BME280;68563;45.644;13.782;2023-07-13T10:08:52;100747.56;;;30.39;45.61
79150;BME280;68563;45.644;13.782;2023-07-13T10:11:22;100759.63;;;30.44;45.91
79150;BME280;68563;45.644;13.782;2023-07-13T10:13:59;100757.94;;;30.43;45.86
79150;BME280;68563;45.644;13.782;2023-07-13T10:16:27;100755.81;;;30.46;46.09
79150;BME280;68563;45.644;13.782;2023-07-13T10:18:59;100749.50;;;30.47;45.54
79150;BME280;68563;45.644;13.782;2023-07-13T10:21:34;100731.94;;;30.45;45.93
79150;BME280;68563;45.644;13.782;2023-07-13T10:24:22;100732.75;;;30.45;45.29
79150;BME280;68563;45.644;13.782;2023-07-13T10:27:15;100729.41;;;30.53;45.89
79150;BME280;68563;45.644;13.782;2023-07-13T10:32:11;100733.28;;;30.59;45.42
79150;BME280;68563;45.644;13.782;2023-07-13T10:34:37;100734.97;;;30.60;45.92
79150;BME280;68563;45.644;13.782;2023-07-13T10:37:05;100736.66;;;30.61;45.48
79150;BME280;68563;45.644;13.782;2023-07-13T10:39:34;100735.34;;;30.65;45.50
79150;BME280;68563;45.644;13.782;2023-07-13T10:42:05;100758.53;;;30.74;45.30
79150;BME280;68563;45.644;13.782;2023-07-13T10:44:32;100768.38;;;30.74;44.78
79150;BME280;68563;45.644;13.782;2023-07-13T10:47:02;100773.72;;;30.74;45.31
79150;BME280;68563;45.644;13.782;2023-07-13T10:49:32;100777.06;;;30.76;45.32
79150;BME280;68563;45.644;13.782;2023-07-13T10:51:58;100770.59;;;30.78;45.18
79150;BME280;68563;45.644;13.782;2023-07-13T10:54:33;100776.94;;;30.77;44.71
79150;BME280;68563;45.644;13.782;2023-07-13T10:57:19;100790.00;;;30.80;45.17
79150;BME280;68563;45.644;13.782;2023-07-13T11:00:15;100804.91;;;30.83;44.89
79150;BME280;68563;45.644;13.782;2023-07-13T11:02:41;100816.28;;;30.85;45.13
79150;BME280;68563;45.644;13.782;2023-07-13T11:05:25;100796.38;;;30.69;45.03
79150;BME280;68563;45.644;13.782;2023-07-13T11:07:56;100793.13;;;30.76;45.17
79150;BME280;68563;45.644;13.782;2023-07-13T11:10:56;100774.03;;;30.70;45.48
79150;BME280;68563;45.644;13.782;2023-07-13T11:16:45;100694.72;;;30.61;45.27
79150;BME280;68563;45.644;13.782;2023-07-13T11:24:29;100611.81;;;30.53;46.23
79150;BME280;68563;45.644;13.782;2023-07-13T11:27:42;100602.78;;;30.54;47.00
79150;BME280;68563;45.644;13.782;2023-07-13T11:30:34;100585.63;;;30.57;46.93
79150;BME280;68563;45.644;13.782;2023-07-13T11:35:42;100597.31;;;30.55;48.86
79150;BME280;68563;45.644;13.782;2023-07-13T11:38:15;100597.75;;;30.51;49.37
79150;BME280;68563;45.644;13.782;2023-07-13T11:40:42;100583.09;;;30.55;49.54
79150;BME280;68563;45.644;13.782;2023-07-13T11:43:13;100571.81;;;30.33;49.87
79150;BME280;68563;45.644;13.782;2023-07-13T11:45:39;100571.69;;;30.35;49.63
79150;BME280;68563;45.644;13.782;2023-07-13T11:48:04;100596.47;;;30.27;50.20
79150;BME280;68563;45.644;13.782;2023-07-13T11:50:30;100613.56;;;30.34;49.86
79150;BME280;68563;45.644;13.782;2023-07-13T11:52:58;100624.81;;;30.38;49.91
79150;BME280;68563;45.644;13.782;2023-07-13T11:55:24;100641.09;;;30.45;50.04
79150;BME280;68563;45.644;13.782;2023-07-13T11:58:00;100659.22;;;30.51;49.75
79150;BME280;68563;45.644;13.782;2023-07-13T12:00:29;100667.34;;;30.49;49.57
79150;BME280;68563;45.644;13.782;2023-07-13T12:03:00;100672.56;;;30.51;49.32
79150;BME280;68563;45.644;13.782;2023-07-13T12:05:26;100696.22;;;30.46;49.48
79150;BME280;68563;45.644;13.782;2023-07-13T12:07:52;100715.63;;;30.38;50.07
79150;BME280;68563;45.644;13.782;2023-07-13T12:10:30;100701.19;;;30.31;50.13
79150;BME280;68563;45.644;13.782;2023-07-13T12:13:01;100699.66;;;30.28;51.19
79150;BME280;68563;45.644;13.782;2023-07-13T12:15:36;100715.25;;;30.33;51.06
79150;BME280;68563;45.644;13.782;2023-07-13T12:18:09;100711.44;;;30.35;51.17
79150;BME280;68563;45.644;13.782;2023-07-13T12:20:37;100699.16;;;30.43;50.89
79150;BME280;68563;45.644;13.782;2023-07-13T12:23:24;100690.44;;;30.40;50.82
79150;BME280;68563;45.644;13.782;2023-07-13T12:25:51;100709.03;;;30.42;51.13
79150;BME280;68563;45.644;13.782;2023-07-13T12:28:23;100728.31;;;30.36;51.03
79150;BME280;68563;45.644;13.782;2023-07-13T12:30:58;100707.41;;;30.31;50.51
79150;BME280;68563;45.644;13.782;2023-07-13T12:33:27;100692.50;;;30.29;51.04
79150;BME280;68563;45.644;13.782;2023-07-13T12:35:53;100710.66;;;30.25;50.89
79150;BME280;68563;45.644;13.782;2023-07-13T12:38:19;100729.91;;;30.29;50.64
79150;BME280;68563;45.644;13.782;2023-07-13T12:40:49;100729.03;;;30.28;51.66
79150;BME280;68563;45.644;13.782;2023-07-13T12:43:16;100733.13;;;30.22;52.88
79150;BME280;68563;45.644;13.782;2023-07-13T12:45:59;100726.97;;;30.22;53.01
79150;BME280;68563;45.644;13.782;2023-07-13T12:48:26;100720.78;;;30.21;53.59
79150;BME280;68563;45.644;13.782;2023-07-13T12:50:53;100718.50;;;30.27;51.89
79150;BME280;68563;45.644;13.782;2023-07-13T12:53:28;100712.31;;;30.26;49.85
79150;BME280;68563;45.644;13.782;2023-07-13T12:56:01;100718.91;;;30.32;48.91
79150;BME280;68563;45.644;13.782;2023-07-13T12:58:31;100719.44;;;30.35;48.23
79150;BME280;68563;45.644;13.782;2023-07-13T13:00:59;100709.31;;;30.39;46.82
79150;BME280;68563;45.644;13.782;2023-07-13T13:03:37;100702.16;;;30.39;46.81
79150;BME280;68563;45.644;13.782;2023-07-13T13:06:06;100702.00;;;30.41;46.71
79150;BME280;68563;45.644;13.782;2023-07-13T13:08:34;100698.94;;;30.36;46.44
79150;BME280;68563;45.644;13.782;2023-07-13T13:11:01;100705.09;;;30.36;46.58
79150;BME280;68563;45.644;13.782;2023-07-13T13:13:27;100697.84;;;30.29;46.33